sensor_id;sensor_type;location;lat;lon;timestamp;P1;durP1;ratioP1;P2;durP2;ratioP2
53670;SDS011;39571;48.612;8.088;2023-02-07T09:00:13;20.98;;;10.35;;
53670;SDS011;39571;48.612;8.088;2023-02-07T09:10:03;17.08;;;9.73;;
53670;SDS011;39571;48.612;8.088;2023-02-07T09:22:11;12.63;;;9.85;;
53670;SDS011;39571;48.612;8.088;2023-02-07T09:29:14;13.63;;;10.40;;
53670;SDS011;39571;48.612;8.088;2023-02-07T09:36:03;13.38;;;9.50;;
53670;SDS011;39571;48.612;8.088;2023-02-07T09:38:29;12.60;;;9.60;;
53670;SDS011;39571;48.612;8.088;2023-02-07T09:40:57;13.20;;;10.13;;
53670;SDS011;39571;48.612;8.088;2023-02-07T09:43:38;11.02;;;9.73;;
53670;SDS011;39571;48.612;8.088;2023-02-07T09:46:16;12.68;;;10.18;;
53670;SDS011;39571;48.612;8.088;2023-02-07T09:48:46;11.80;;;10.05;;
53670;SDS011;39571;48.612;8.088;2023-02-07T09:51:19;13.57;;;9.55;;
53670;SDS011;39571;48.612;8.088;2023-02-07T09:53:53;12.73;;;9.90;;
53670;SDS011;39571;48.612;8.088;2023-02-07T09:56:23;12.00;;;9.45;;
53670;SDS011;39571;48.612;8.088;2023-02-07T09:58:59;12.77;;;9.20;;
53670;SDS011;39571;48.612;8.088;2023-02-07T10:02:03;11.25;;;9.15;;
53670;SDS011;39571;48.612;8.088;2023-02-07T10:04:28;11.05;;;8.68;;
53670;SDS011;39571;48.612;8.088;2023-02-07T10:06:59;9.82;;;8.68;;
53670;SDS011;39571;48.612;8.088;2023-02-07T10:09:28;13.07;;;8.98;;
53670;SDS011;39571;48.612;8.088;2023-02-07T10:14:44;9.57;;;8.23;;
53670;SDS011;39571;48.612;8.088;2023-02-07T10:23:20;10.30;;;8.32;;
53670;SDS011;39571;48.612;8.088;2023-02-07T10:25:50;11.05;;;8.90;;
53670;SDS011;39571;48.612;8.088;2023-02-07T10:30:59;11.70;;;9.80;;
53670;SDS011;39571;48.612;8.088;2023-02-07T10:33:32;12.50;;;9.82;;
53670;SDS011;39571;48.612;8.088;2023-02-07T10:36:04;11.25;;;9.75;;
53670;SDS011;39571;48.612;8.088;2023-02-07T10:41:24;11.73;;;10.35;;
53670;SDS011;39571;48.612;8.088;2023-02-07T10:43:53;11.95;;;10.45;;
53670;SDS011;39571;48.612;8.088;2023-02-07T10:46:19;14.13;;;10.52;;
53670;SDS011;39571;48.612;8.088;2023-02-07T10:48:46;11.45;;;10.25;;
53670;SDS011;39571;48.612;8.088;2023-02-07T10:51:32;11.25;;;9.60;;
53670;SDS011;39571;48.612;8.088;2023-02-07T10:56:35;10.80;;;9.57;;
53670;SDS011;39571;48.612;8.088;2023-02-07T10:59:04;10.50;;;9.43;;
53670;SDS011;39571;48.612;8.088;2023-02-07T11:01:31;12.98;;;9.98;;
53670;SDS011;39571;48.612;8.088;2023-02-07T11:03:58;12.85;;;10.63;;
53670;SDS011;39571;48.612;8.088;2023-02-07T11:06:31;11.45;;;10.13;;
53670;SDS011;39571;48.612;8.088;2023-02-07T11:11:47;12.35;;;10.32;;
53670;SDS011;39571;48.612;8.088;2023-02-07T11:14:15;11.88;;;10.02;;
53670;SDS011;39571;48.612;8.088;2023-02-07T11:16:44;11.70;;;10.30;;
53670;SDS011;39571;48.612;8.088;2023-02-07T11:19:14;12.70;;;10.30;;
53670;SDS011;39571;48.612;8.088;2023-02-07T11:24:13;12.88;;;11.43;;
53670;SDS011;39571;48.612;8.088;2023-02-07T11:27:01;14.18;;;11.63;;
53670;SDS011;39571;48.612;8.088;2023-02-07T11:29:58;14.93;;;12.10;;
53670;SDS011;39571;48.612;8.088;2023-02-07T11:32:29;14.30;;;12.10;;
53670;SDS011;39571;48.612;8.088;2023-02-07T11:35:07;14.65;;;12.57;;
53670;SDS011;39571;48.612;8.088;2023-02-07T11:37:38;16.42;;;12.48;;
53670;SDS011;39571;48.612;8.088;2023-02-07T11:40:22;15.20;;;12.18;;
53670;SDS011;39571;48.612;8.088;2023-02-07T11:42:48;13.15;;;11.75;;
53670;SDS011;39571;48.612;8.088;2023-02-07T11:45:26;14.38;;;12.30;;
53670;SDS011;39571;48.612;8.088;2023-02-07T11:47:54;14.40;;;11.75;;
53670;SDS011;39571;48.612;8.088;2023-02-07T11:50:23;12.82;;;11.43;;
53670;SDS011;39571;48.612;8.088;2023-02-07T11:52:53;14.32;;;11.70;;
53670;SDS011;39571;48.612;8.088;2023-02-07T11:55:22;14.15;;;11.93;;
53670;SDS011;39571;48.612;8.088;2023-02-07T11:58:00;14.27;;;12.38;;
53670;SDS011;39571;48.612;8.088;2023-02-07T12:00:35;13.73;;;11.82;;
53670;SDS011;39571;48.612;8.088;2023-02-07T12:03:06;14.90;;;12.38;;
53670;SDS011;39571;48.612;8.088;2023-02-07T12:05:42;13.18;;;11.02;;
53670;SDS011;39571;48.612;8.088;2023-02-07T12:08:15;13.52;;;11.63;;
53670;SDS011;39571;48.612;8.088;2023-02-07T12:10:52;14.18;;;11.95;;
53670;SDS011;39571;48.612;8.088;2023-02-07T12:16:01;17.00;;;12.98;;
53670;SDS011;39571;48.612;8.088;2023-02-07T12:18:34;12.90;;;11.25;;
53670;SDS011;39571;48.612;8.088;2023-02-07T12:21:08;13.63;;;10.90;;
53670;SDS011;39571;48.612;8.088;2023-02-07T12:23:43;14.45;;;11.93;;
53670;SDS011;39571;48.612;8.088;2023-02-07T12:43:29;13.52;;;11.00;;
53670;SDS011;39571;48.612;8.088;2023-02-07T12:59:07;12.70;;;10.23;;
53670;SDS011;39571;48.612;8.088;2023-02-07T13:01:36;11.27;;;10.00;;
53670;SDS011;39571;48.612;8.088;2023-02-07T13:07:04;13.52;;;10.43;;
53670;SDS011;39571;48.612;8.088;2023-02-07T13:23:03;11.90;;;10.60;;
53670;SDS011;39571;48.612;8.088;2023-02-07T13:25:39;12.60;;;10.40;;
53670;SDS011;39571;48.612;8.088;2023-02-07T13:28:52;15.20;;;10.63;;
53670;SDS011;39571;48.612;8.088;2023-02-07T13:31:09;11.85;;;10.40;;
53670;SDS011;39571;48.612;8.088;2023-02-07T13:33:39;12.15;;;10.85;;
53670;SDS011;39571;48.612;8.088;2023-02-07T13:36:10;18.23;;;13.15;;
53670;SDS011;39571;48.612;8.088;2023-02-07T13:38:45;15.63;;;12.60;;
53670;SDS011;39571;48.612;8.088;2023-02-07T13:41:16;13.35;;;11.18;;
53670;SDS011;39571;48.612;8.088;2023-02-07T13:44:04;12.27;;;10.18;;
53670;SDS011;39571;48.612;8.088;2023-02-07T13:47:23;12.05;;;10.43;;
53670;SDS011;39571;48.612;8.088;2023-02-07T13:52:13;11.98;;;10.13;;
53670;SDS011;39571;48.612;8.088;2023-02-07T13:57:52;12.57;;;10.98;;
53670;SDS011;39571;48.612;8.088;2023-02-07T14:00:57;12.77;;;11.10;;
53670;SDS011;39571;48.612;8.088;2023-02-07T14:06:38;12.70;;;10.75;;
53670;SDS011;39571;48.612;8.088;2023-02-07T14:09:18;12.57;;;10.52;;
53670;SDS011;39571;48.612;8.088;2023-02-07T14:11:57;12.45;;;10.38;;
53670;SDS011;39571;48.612;8.088;2023-02-07T14:14:27;13.25;;;10.60;;
53670;SDS011;39571;48.612;8.088;2023-02-07T14:16:56;14.45;;;12.05;;
53670;SDS011;39571;48.612;8.088;2023-02-07T14:35:29;13.10;;;10.15;;
53670;SDS011;39571;48.612;8.088;2023-02-07T14:45:37;11.52;;;10.32;;
53670;SDS011;39571;48.612;8.088;2023-02-07T14:48:36;11.73;;;10.48;;
53670;SDS011;39571;48.612;8.088;2023-02-07T14:51:04;12.15;;;10.23;;
53670;SDS011;39571;48.612;8.088;2023-02-07T14:53:37;11.65;;;10.15;;
53670;SDS011;39571;48.612;8.088;2023-02-07T14:56:04;12.57;;;10.50;;
53670;SDS011;39571;48.612;8.088;2023-02-07T14:58:41;12.88;;;10.73;;
53670;SDS011;39571;48.612;8.088;2023-02-07T15:01:10;12.88;;;10.70;;
